Time;durP1;ratioP1;P1;durP2;ratioP2;P2;SDS_P1;SDS_P2;PMS_P1;PMS_P2;Temp;Humidity;BMP_temperature;BMP_pressure;BME280_temperature;BME280_humidity;BME280_pressure;Samples;Min_cycle;Max_cycle;Signal;HPM_P1;HPM_P2
2023/05/01 00:00:58;;;;;;;7.30;4.90;;;;;;;8.38;58.46;99094.69;107466;1254;61872;-39
2023/05/01 00:03:26;;;;;;;11.50;5.40;;;;;;;8.40;58.76;99096.03;107463;1254;60204;-39
2023/05/01 00:06:02;;;;;;;14.40;5.50;;;;;;;8.39;59.14;99102.56;107451;1254;75337;-39
2023/05/01 00:08:30;;;;;;;8.20;5.50;;;;;;;8.36;59.67;99105.59;107516;1254;68934;-39
2023/05/01 00:11:02;;;;;;;14.20;6.20;;;;;;;8.33;60.38;99107.29;107546;1254;74769;-39
2023/05/01 00:13:30;;;;;;;10.80;5.50;;;;;;;8.33;60.75;99113.16;107438;1254;63483;-39
2023/05/01 00:15:57;;;;;;;13.60;5.20;;;;;;;8.39;60.96;99118.17;107595;1254;60443;-39
2023/05/01 00:18:25;;;;;;;10.30;5.80;;;;;;;8.40;61.19;99119.80;107428;1254;75317;-39
2023/05/01 00:20:52;;;;;;;10.70;5.50;;;;;;;8.36;61.81;99127.36;107492;1254;68119;-39
2023/05/01 00:23:19;;;;;;;15.70;6.30;;;;;;;8.32;62.22;99129.41;107422;1254;73929;-39
2023/05/01 00:25:46;;;;;;;11.80;6.00;;;;;;;8.27;62.49;99134.98;107489;1254;61368;-39
2023/05/01 00:28:13;;;;;;;7.60;5.50;;;;;;;8.24;62.89;99139.02;107418;1254;60987;-39
2023/05/01 00:30:40;;;;;;;9.80;5.90;;;;;;;8.21;63.20;99145.80;107387;1253;75196;-39
2023/05/01 00:33:08;;;;;;;15.20;6.30;;;;;;;8.19;63.49;99146.36;107454;1254;70249;-38
2023/05/01 00:35:36;;;;;;;11.10;5.80;;;;;;;8.18;63.69;99145.89;107465;1254;73849;-39
2023/05/01 00:38:03;;;;;;;9.00;5.40;;;;;;;8.21;63.89;99147.88;107544;1254;62067;-39
2023/05/01 00:40:30;;;;;;;7.80;5.20;;;;;;;8.30;64.00;99153.59;107485;1254;62459;-39
2023/05/01 00:42:57;;;;;;;11.10;6.30;;;;;;;8.36;64.17;99158.07;107447;1254;76139;-38
2023/05/01 00:45:25;;;;;;;10.30;5.80;;;;;;;8.39;64.35;99160.94;107350;1254;68017;-38
2023/05/01 00:47:52;;;;;;;12.10;5.50;;;;;;;8.42;64.40;99164.40;107470;1254;74583;-39
2023/05/01 00:50:19;;;;;;;9.70;5.60;;;;;;;8.44;64.42;99162.13;107389;1254;60555;-39
2023/05/01 00:52:46;;;;;;;11.00;5.80;;;;;;;8.46;64.58;99164.55;107384;1254;61747;-39
2023/05/01 00:55:13;;;;;;;9.50;6.10;;;;;;;8.47;64.72;99163.52;107495;1259;74983;-39
2023/05/01 00:57:40;;;;;;;11.90;5.60;;;;;;;8.48;64.82;99162.46;107467;1254;70062;-39
2023/05/01 01:00:11;;;;;;;8.70;5.60;;;;;;;8.50;64.82;99165.52;107466;1253;74725;-39
2023/05/01 01:02:38;;;;;;;8.30;4.70;;;;;;;8.56;64.91;99169.29;107396;1257;62898;-39
2023/05/01 01:05:06;;;;;;;12.70;5.10;;;;;;;8.64;64.93;99169.70;107507;1253;62635;-39
2023/05/01 01:08:10;;;;;;;11.80;6.00;;;;;;;8.67;64.90;99164.30;107541;1254;74074;-39
2023/05/01 01:11:16;;;;;;;8.40;5.40;;;;;;;8.67;64.97;99168.08;107335;1254;68852;-39
2023/05/01 01:13:50;;;;;;;9.50;5.70;;;;;;;8.65;65.21;99174.21;107253;1254;74009;-39
2023/05/01 01:16:56;;;;;;;8.70;5.00;;;;;;;8.64;65.32;99174.04;107415;1254;61641;-38
2023/05/01 01:19:33;;;;;;;11.80;5.60;;;;;;;8.66;65.45;99183.89;107352;1259;61111;-39
2023/05/01 01:22:04;;;;;;;10.50;4.80;;;;;;;8.63;65.61;99185.66;107463;1254;75990;-39
2023/05/01 01:25:33;;;;;;;10.00;4.70;;;;;;;8.69;65.64;99191.99;107429;1254;69286;-38
2023/05/01 01:28:00;;;;;;;10.30;5.00;;;;;;;8.81;65.61;99191.55;106960;1257;75080;-39
2023/05/01 01:30:55;;;;;;;9.60;4.60;;;;;;;8.79;65.75;99189.75;107056;1258;62486;-39
2023/05/01 01:33:51;;;;;;;13.10;5.10;;;;;;;8.82;65.86;99194.44;107397;1259;62590;-39
2023/05/01 01:36:20;;;;;;;11.20;5.60;;;;;;;8.81;65.86;99198.42;107464;1254;76189;-39
2023/05/01 01:38:57;;;;;;;13.10;5.20;;;;;;;8.79;66.10;99193.83;107622;1255;69158;-39
2023/05/01 01:41:33;;;;;;;10.40;5.00;;;;;;;8.74;66.14;99194.56;107468;1254;73941;-38
2023/05/01 01:44:12;;;;;;;7.40;4.30;;;;;;;8.67;66.38;99199.81;107501;1256;62367;-39
2023/05/01 01:46:40;;;;;;;8.30;4.20;;;;;;;8.68;66.39;99199.52;107500;1254;61510;-39
2023/05/01 01:49:12;;;;;;;8.30;4.40;;;;;;;8.69;66.49;99199.16;107507;1254;76107;-39
2023/05/01 01:51:40;;;;;;;10.70;5.20;;;;;;;8.67;66.51;99200.35;107368;1260;69909;-39
2023/05/01 01:54:08;;;;;;;11.00;4.90;;;;;;;8.66;66.51;99206.81;107355;1254;74788;-38
2023/05/01 01:56:36;;;;;;;8.60;4.50;;;;;;;8.66;66.50;99209.91;107533;1253;60450;-39
2023/05/01 01:59:04;;;;;;;9.30;5.20;;;;;;;8.66;66.54;99215.54;107241;1253;61722;-39
2023/05/01 02:01:31;;;;;;;8.60;5.20;;;;;;;8.64;66.50;99215.73;107459;1259;76149;-39
2023/05/01 02:03:58;;;;;;;6.70;4.30;;;;;;;8.64;66.51;99214.26;107326;1254;68242;-39
2023/05/01 02:06:26;;;;;;;6.90;4.20;;;;;;;8.69;66.48;99216.07;107333;1254;74565;-39
2023/05/01 02:08:53;;;;;;;11.00;4.40;;;;;;;8.76;66.38;99214.84;107373;1254;62622;-39
2023/05/01 02:11:21;;;;;;;6.70;4.10;;;;;;;8.79;66.42;99212.36;107247;1254;61471;-39
2023/05/01 02:13:48;;;;;;;7.90;4.70;;;;;;;8.80;66.37;99216.64;107423;1254;76400;-39
2023/05/01 02:16:15;;;;;;;7.10;4.70;;;;;;;8.81;66.39;99217.44;107488;1253;67386;-39
2023/05/01 02:18:43;;;;;;;10.10;4.40;;;;;;;8.81;66.36;99216.98;107309;1254;74965;-39
2023/05/01 02:21:10;;;;;;;5.50;4.60;;;;;;;8.80;66.38;99221.35;107370;1256;62401;-39
2023/05/01 02:23:37;;;;;;;8.00;4.70;;;;;;;8.76;66.42;99224.82;107426;1253;62619;-39
2023/05/01 02:26:05;;;;;;;8.60;4.30;;;;;;;8.73;66.58;99231.69;107366;1253;75486;-39
2023/05/01 02:28:32;;;;;;;9.20;4.00;;;;;;;8.75;66.49;99236.99;107422;1259;69962;-39
2023/05/01 02:31:00;;;;;;;11.40;4.00;;;;;;;8.79;66.56;99238.88;107317;1253;74773;-37
2023/05/01 02:33:27;;;;;;;6.60;4.10;;;;;;;8.80;66.52;99242.27;107533;1254;62575;-38
2023/05/01 02:35:54;;;;;;;10.10;4.60;;;;;;;8.78;66.56;99247.77;107506;1253;61173;-37
2023/05/01 02:38:21;;;;;;;9.30;4.50;;;;;;;8.77;66.50;99253.70;107519;1254;76217;-38
2023/05/01 02:40:51;;;;;;;7.80;4.60;;;;;;;8.71;66.48;99253.81;107411;1253;70224;-38
2023/05/01 02:43:20;;;;;;;8.70;5.10;;;;;;;8.65;66.59;99258.69;107472;1254;75860;-38
2023/05/01 02:45:47;;;;;;;7.70;4.60;;;;;;;8.61;66.65;99254.10;107390;1257;62428;-38
2023/05/01 02:48:17;;;;;;;7.80;4.70;;;;;;;8.57;66.63;99261.55;107518;1253;61422;-38
2023/05/01 02:50:45;;;;;;;8.90;4.10;;;;;;;8.57;66.56;99264.73;107369;1254;73860;-38
2023/05/01 02:53:12;;;;;;;7.10;3.60;;;;;;;8.59;66.42;99265.16;107518;1254;70078;-38
2023/05/01 02:55:46;;;;;;;7.20;4.20;;;;;;;8.56;66.48;99269.42;107446;1254;73443;-38
2023/05/01 02:58:15;;;;;;;6.00;4.00;;;;;;;8.54;66.52;99271.52;107322;1253;60495;-38
2023/05/01 03:00:44;;;;;;;7.20;4.80;;;;;;;8.53;66.50;99274.74;107403;1253;61338;-38
2023/05/01 03:03:11;;;;;;;7.60;4.20;;;;;;;8.52;66.43;99281.05;107509;1254;73676;-38
2023/05/01 03:05:39;;;;;;;11.40;4.60;;;;;;;8.49;66.25;99289.67;107418;1253;70048;-38
2023/05/01 03:08:08;;;;;;;8.30;4.20;;;;;;;8.27;66.25;99267.89;107543;1254;73044;-38
2023/05/01 03:10:38;;;;;;;6.30;4.30;;;;;;;8.43;66.16;99297.94;107414;1259;62627;-38
2023/05/01 03:13:05;;;;;;;5.80;3.80;;;;;;;8.41;66.09;99303.98;107551;1253;62685;-38
2023/05/01 03:15:33;;;;;;;8.50;4.00;;;;;;;8.44;65.99;99305.69;107532;1258;75237;-38
2023/05/01 03:18:00;;;;;;;5.20;3.50;;;;;;;8.50;65.84;99309.86;107533;1253;70213;-38
2023/05/01 03:20:28;;;;;;;8.10;3.90;;;;;;;8.51;65.81;99309.83;107452;1256;73342;-38
2023/05/01 03:22:56;;;;;;;6.80;4.00;;;;;;;8.51;65.55;99311.67;107509;1254;60443;-38
2023/05/01 03:25:23;;;;;;;6.40;3.50;;;;;;;8.51;65.43;99311.60;107395;1254;61401;-38
2023/05/01 03:27:50;;;;;;;7.00;3.50;;;;;;;8.52;65.32;99311.38;107497;1253;74907;-38
2023/05/01 03:30:21;;;;;;;5.00;3.60;;;;;;;8.49;65.02;99314.85;107593;1254;67001;-38
2023/05/01 03:32:50;;;;;;;7.20;3.80;;;;;;;8.45;64.97;99317.15;107545;1254;71714;-38
2023/05/01 03:35:22;;;;;;;5.40;3.30;;;;;;;8.40;64.80;99319.86;107524;1254;60513;-39
2023/05/01 03:37:49;;;;;;;6.50;3.40;;;;;;;8.33;64.65;99322.21;107413;1254;60355;-39
2023/05/01 03:40:40;;;;;;;5.40;3.10;;;;;;;8.25;64.75;99325.46;107290;1254;75153;-39
2023/05/01 03:43:30;;;;;;;4.10;2.90;;;;;;;8.18;64.64;99330.50;107492;1254;68738;-39
2023/05/01 03:45:58;;;;;;;3.80;2.40;;;;;;;8.14;64.82;99330.53;107517;1254;72643;-39
2023/05/01 03:48:25;;;;;;;7.00;2.60;;;;;;;8.22;64.51;99334.08;107356;1254;60619;-39
2023/05/01 03:50:52;;;;;;;5.20;2.60;;;;;;;8.25;64.36;99341.74;107533;1254;61637;-39
2023/05/01 03:53:19;;;;;;;4.90;2.70;;;;;;;8.26;63.85;99346.31;107371;1254;75984;-39
2023/05/01 03:55:46;;;;;;;6.50;2.80;;;;;;;8.26;63.65;99348.70;107509;1254;69746;-39
2023/05/01 03:58:13;;;;;;;4.90;2.80;;;;;;;8.25;63.43;99352.48;107479;1254;73396;-38
2023/05/01 04:00:41;;;;;;;6.60;2.80;;;;;;;8.23;62.93;99353.64;107490;1257;62719;-39
2023/05/01 04:03:08;;;;;;;4.10;2.30;;;;;;;8.22;63.01;99354.67;107341;1254;61238;-39
2023/05/01 04:05:37;;;;;;;4.10;2.40;;;;;;;8.24;62.89;99352.05;107444;1254;74081;-39
2023/05/01 04:08:05;;;;;;;6.60;3.00;;;;;;;8.26;62.69;99355.05;107596;1253;68039;-39
2023/05/01 04:10:32;;;;;;;3.90;2.90;;;;;;;8.28;62.37;99359.88;107468;1254;74090;-39
2023/05/01 04:13:03;;;;;;;4.30;2.60;;;;;;;8.29;62.15;99364.02;107451;1253;60504;-39
2023/05/01 04:15:31;;;;;;;4.10;2.90;;;;;;;8.29;61.99;99365.09;107471;1254;60418;-39
2023/05/01 04:17:58;;;;;;;4.40;2.20;;;;;;;8.30;62.00;99368.34;107317;1254;76208;-39
2023/05/01 04:20:26;;;;;;;5.40;2.30;;;;;;;8.32;61.59;99364.77;107508;1254;68396;-39
2023/05/01 04:22:53;;;;;;;5.30;2.90;;;;;;;8.42;61.00;99370.39;107476;1254;71565;-39
2023/05/01 04:25:21;;;;;;;3.90;2.60;;;;;;;8.46;60.62;99374.36;107361;1253;62619;-39
2023/05/01 04:27:50;;;;;;;4.20;2.30;;;;;;;8.47;60.61;99378.17;107527;1254;60616;-39
2023/05/01 04:30:17;;;;;;;5.70;2.40;;;;;;;8.51;60.38;99380.43;107589;1253;76317;-39
2023/05/01 04:32:45;;;;;;;5.30;2.80;;;;;;;8.54;60.33;99382.92;107441;1254;70336;-39
2023/05/01 04:35:12;;;;;;;4.50;2.60;;;;;;;8.55;59.99;99384.96;107485;1254;71461;-39
2023/05/01 04:37:42;;;;;;;4.10;2.50;;;;;;;8.57;59.93;99381.91;107523;1253;60636;-39
2023/05/01 04:40:10;;;;;;;6.60;2.80;;;;;;;8.57;59.81;99384.86;107349;1254;60615;-39
2023/05/01 04:42:37;;;;;;;5.60;2.70;;;;;;;8.53;59.96;99377.34;107542;1254;75173;-39
2023/05/01 04:45:08;;;;;;;5.00;2.60;;;;;;;8.62;59.99;99389.33;107499;1253;68290;-39
2023/05/01 04:47:35;;;;;;;7.10;2.60;;;;;;;8.65;59.80;99393.71;107420;1256;74428;-39
2023/05/01 04:50:03;;;;;;;4.30;2.30;;;;;;;8.67;59.70;99397.63;107495;1253;61131;-39
2023/05/01 04:52:30;;;;;;;3.90;2.50;;;;;;;8.69;59.90;99398.54;107394;1253;60158;-39
2023/05/01 04:54:59;;;;;;;6.20;2.50;;;;;;;8.73;59.23;99402.90;107532;1254;73767;-39
2023/05/01 04:57:28;;;;;;;3.20;2.20;;;;;;;8.77;58.97;99408.87;107430;1254;66776;-39
2023/05/01 04:59:56;;;;;;;3.40;2.30;;;;;;;8.81;59.19;99407.98;107360;1254;74893;-39
2023/05/01 05:04:59;;;;;;;4.10;2.40;;;;;;;8.92;58.71;99413.44;104155;1292;600932;-39
2023/05/01 05:07:27;;;;;;;3.70;2.30;;;;;;;8.98;58.47;99416.30;105780;1266;1003413;-39
2023/05/01 05:10:20;;;;;;;4.60;2.50;;;;;;;9.08;58.14;99421.42;106632;1267;60181;-39
2023/05/01 05:12:58;;;;;;;7.50;2.60;;;;;;;9.14;57.64;99418.72;106533;1267;70678;-39
2023/05/01 05:15:25;;;;;;;4.20;2.60;;;;;;;9.22;57.31;99424.55;106760;1267;69503;-39
2023/05/01 05:17:52;;;;;;;2.90;2.30;;;;;;;9.29;57.25;99426.89;106433;1265;221012;-39
2023/05/01 05:20:23;;;;;;;4.70;2.80;;;;;;;9.36;56.45;99428.70;106826;1263;59014;-39
2023/05/01 05:22:51;;;;;;;3.50;2.30;;;;;;;9.42;56.18;99431.48;106839;1263;59472;-39
2023/05/01 05:25:21;;;;;;;;;;;;;;;9.50;55.79;99430.60;106824;1268;71050;-39
2023/05/01 05:27:48;;;;;;;7.00;2.60;;;;;;;9.53;55.28;99437.70;106795;1263;69023;-39
2023/05/01 05:30:15;;;;;;;4.70;2.50;;;;;;;9.57;55.90;99435.10;106791;1263;71465;-39
2023/05/01 05:32:43;;;;;;;3.20;2.40;;;;;;;9.68;55.55;99439.23;106828;1264;59588;-39
2023/05/01 05:35:11;;;;;;;4.20;2.60;;;;;;;9.80;54.93;99445.81;106798;1263;61738;-39
2023/05/01 05:37:38;;;;;;;2.80;2.30;;;;;;;9.90;54.58;99447.29;106774;1263;74424;-39
2023/05/01 05:40:06;;;;;;;4.10;2.60;;;;;;;10.00;53.90;99455.89;106747;1263;69306;-39
2023/05/01 05:42:42;;;;;;;4.30;2.40;;;;;;;10.11;53.28;99455.42;106628;1263;74017;-38
2023/05/01 05:45:09;;;;;;;5.20;2.50;;;;;;;10.20;52.49;99456.64;106654;1263;60607;-39
2023/05/01 05:47:37;;;;;;;2.80;2.20;;;;;;;10.29;52.70;99460.81;106751;1263;59662;-38
2023/05/01 05:50:06;;;;;;;3.70;2.00;;;;;;;10.38;52.11;99466.58;106707;1263;75298;-38
2023/05/01 05:52:33;;;;;;;3.60;2.30;;;;;;;10.47;50.51;99471.24;106712;1263;69281;-38
2023/05/01 05:55:01;;;;;;;4.90;2.20;;;;;;;10.54;49.42;99468.32;106745;1269;72974;-38
2023/05/01 05:57:28;;;;;;;5.20;2.10;;;;;;;10.62;50.08;99471.65;106810;1269;61440;-38
2023/05/01 05:59:56;;;;;;;4.40;2.00;;;;;;;10.73;49.40;99473.95;106798;1263;59481;-38
2023/05/01 06:02:24;;;;;;;4.20;2.20;;;;;;;10.83;48.92;99477.33;106857;1264;71872;-38
2023/05/01 06:04:52;;;;;;;3.40;1.80;;;;;;;10.93;48.81;99475.44;106931;1264;69835;-38
2023/05/01 06:07:21;;;;;;;3.70;2.00;;;;;;;11.03;47.92;99482.05;106816;1264;71203;-38
2023/05/01 06:09:48;;;;;;;2.00;1.70;;;;;;;11.12;47.61;99483.84;106859;1263;60030;-38
2023/05/01 06:12:16;;;;;;;3.50;2.10;;;;;;;11.19;47.43;99484.75;106834;1263;60862;-38
2023/05/01 06:14:44;;;;;;;3.20;1.90;;;;;;;11.27;46.35;99483.05;106919;1269;74481;-38
2023/05/01 06:17:13;;;;;;;4.00;1.90;;;;;;;11.35;46.32;99480.48;106808;1263;67405;-38
2023/05/01 06:19:40;;;;;;;2.10;1.70;;;;;;;11.44;45.85;99484.89;106737;1264;74918;-38
2023/05/01 06:22:08;;;;;;;2.90;1.80;;;;;;;11.52;44.77;99491.70;106548;1265;62432;-38
2023/05/01 06:24:41;;;;;;;2.70;1.50;;;;;;;11.60;43.80;99489.89;106624;1264;59480;-38
2023/05/01 06:27:08;;;;;;;2.80;1.90;;;;;;;11.66;43.62;99493.64;106029;1265;1003794;-38
2023/05/01 06:29:36;;;;;;;2.70;1.80;;;;;;;11.73;44.23;99484.94;106634;1265;69182;-38
2023/05/01 06:32:04;;;;;;;3.50;1.80;;;;;;;11.81;44.98;99488.71;106621;1267;74636;-38
2023/05/01 06:34:31;;;;;;;3.40;1.90;;;;;;;11.91;44.04;99493.99;106743;1264;60880;-38
2023/05/01 06:36:58;;;;;;;4.30;1.60;;;;;;;12.00;43.53;99499.56;106715;1267;60896;-38
2023/05/01 06:39:25;;;;;;;3.30;1.50;;;;;;;12.11;42.95;99506.17;106723;1266;75469;-38
2023/05/01 06:41:53;;;;;;;2.10;1.30;;;;;;;12.20;41.01;99502.13;106775;1267;69726;-38
2023/05/01 06:44:29;;;;;;;4.40;1.10;;;;;;;12.31;38.21;99510.44;106723;1267;72577;-38
2023/05/01 06:47:00;;;;;;;3.10;1.20;;;;;;;12.39;38.55;99516.05;106756;1265;61515;-38
2023/05/01 06:49:28;;;;;;;3.10;1.40;;;;;;;12.46;38.18;99516.16;106741;1266;62634;-38
2023/05/01 06:51:55;;;;;;;2.00;1.20;;;;;;;12.56;37.59;99514.98;106724;1266;75072;-39
2023/05/01 06:54:22;;;;;;;5.50;1.30;;;;;;;12.66;36.51;99524.20;106616;1266;70722;-38
2023/05/01 06:56:49;;;;;;;3.00;1.10;;;;;;;12.72;35.83;99519.21;106665;1265;74738;-39
2023/05/01 06:59:16;;;;;;;1.80;1.20;;;;;;;12.77;36.50;99519.75;106639;1264;62500;-39
2023/05/01 07:01:44;;;;;;;4.40;1.60;;;;;;;12.85;36.00;99531.20;106620;1264;62201;-39
2023/05/01 07:04:11;;;;;;;2.30;1.40;;;;;;;12.91;35.03;99522.80;106641;1266;73603;-39
2023/05/01 07:06:38;;;;;;;3.80;1.30;;;;;;;12.94;35.39;99525.88;106757;1266;68896;-39
2023/05/01 07:09:05;;;;;;;2.10;1.00;;;;;;;12.97;34.95;99525.11;106757;1266;71316;-39
2023/05/01 07:11:32;;;;;;;1.80;1.40;;;;;;;13.01;35.46;99530.06;106741;1265;59782;-39
2023/05/01 07:14:00;;;;;;;2.90;1.40;;;;;;;13.09;35.35;99536.02;106749;1265;59532;-39
2023/05/01 07:16:27;;;;;;;2.90;1.40;;;;;;;13.15;35.02;99535.93;106752;1265;74402;-39
2023/05/01 07:18:54;;;;;;;2.60;1.40;;;;;;;13.20;34.75;99537.78;106805;1266;69845;-39
2023/05/01 07:21:21;;;;;;;4.80;1.40;;;;;;;13.28;34.06;99543.16;106747;1265;73481;-39
2023/05/01 07:23:49;;;;;;;4.80;1.30;;;;;;;13.34;33.85;99543.15;106734;1267;60715;-39
2023/05/01 07:26:16;;;;;;;3.70;1.40;;;;;;;13.37;34.16;99548.46;106728;1267;61416;-39
2023/05/01 07:28:43;;;;;;;2.00;1.10;;;;;;;13.42;34.72;99544.23;106794;1265;75441;-39
2023/05/01 07:31:10;;;;;;;1.70;1.00;;;;;;;13.50;34.46;99548.92;106695;1266;69612;-39
2023/05/01 07:33:37;;;;;;;5.10;1.70;;;;;;;13.60;33.88;99550.42;106608;1266;74772;-39
2023/05/01 07:36:05;;;;;;;4.80;1.40;;;;;;;13.67;33.56;99543.79;106615;1268;61424;-39
2023/05/01 07:38:32;;;;;;;3.00;1.50;;;;;;;13.74;34.35;99555.91;106733;1265;61547;-39
2023/05/01 07:40:59;;;;;;;4.10;1.60;;;;;;;13.85;34.13;99559.13;106803;1266;75352;-39
2023/05/01 07:43:26;;;;;;;4.10;1.30;;;;;;;13.91;34.20;99549.91;106752;1269;70099;-39
2023/05/01 07:45:59;;;;;;;1.40;1.00;;;;;;;14.04;34.89;99558.73;106722;1266;74796;-39
2023/05/01 07:48:26;;;;;;;3.60;1.40;;;;;;;14.13;34.28;99555.39;106786;1266;62243;-39
2023/05/01 07:50:55;;;;;;;3.90;1.50;;;;;;;14.29;33.88;99566.34;106703;1266;61646;-39
2023/05/01 07:53:22;;;;;;;2.30;1.20;;;;;;;14.38;33.02;99569.30;106628;1266;75305;-39
2023/05/01 07:55:52;;;;;;;1.80;1.30;;;;;;;14.41;32.82;99566.44;106648;1266;67425;-39
2023/05/01 07:58:19;;;;;;;2.60;1.60;;;;;;;14.45;32.93;99558.45;106589;1267;73886;-39
2023/05/01 08:00:46;;;;;;;3.90;2.00;;;;;;;14.52;33.58;99562.31;106692;1266;62696;-39
2023/05/01 08:03:14;;;;;;;3.00;1.50;;;;;;;14.61;33.10;99563.46;106757;1266;60504;-39
2023/05/01 08:05:41;;;;;;;2.90;1.40;;;;;;;14.69;32.85;99571.29;106758;1265;74774;-39
2023/05/01 08:08:08;;;;;;;2.80;1.50;;;;;;;14.78;32.78;99570.41;106753;1266;68513;-39
2023/05/01 08:10:36;;;;;;;3.00;1.30;;;;;;;14.90;32.87;99577.66;106753;1264;74422;-39
2023/05/01 08:13:03;;;;;;;3.90;1.30;;;;;;;15.01;32.81;99577.77;106722;1266;61357;-39
2023/05/01 08:15:30;;;;;;;2.40;1.30;;;;;;;15.08;32.99;99578.03;106765;1267;60928;-39
2023/05/01 08:17:57;;;;;;;2.50;1.30;;;;;;;15.14;32.64;99577.44;107021;1257;75133;-40
2023/05/01 08:20:25;;;;;;;2.60;1.50;;;;;;;15.17;32.52;99583.08;107028;1257;70243;-39
2023/05/01 08:22:52;;;;;;;3.60;1.60;;;;;;;15.20;32.79;99584.95;107144;1257;75371;-40
2023/05/01 08:25:19;;;;;;;2.20;1.40;;;;;;;15.24;32.76;99579.73;107102;1257;62260;-39
2023/05/01 08:27:48;;;;;;;2.00;1.40;;;;;;;15.30;32.95;99586.32;107086;1257;62364;-39
2023/05/01 08:30:15;;;;;;;5.50;1.60;;;;;;;15.36;33.28;99587.51;107090;1257;73722;-39
2023/05/01 08:32:42;;;;;;;2.90;1.60;;;;;;;15.42;33.08;99587.84;107089;1257;68807;-40
2023/05/01 08:35:10;;;;;;;2.90;1.70;;;;;;;15.45;32.95;99591.90;107126;1257;75023;-40
2023/05/01 08:37:37;;;;;;;2.70;1.60;;;;;;;15.53;33.68;99585.85;107208;1260;61672;-40
2023/05/01 08:40:07;;;;;;;2.30;1.70;;;;;;;15.69;33.92;99584.34;107075;1261;59577;-40
2023/05/01 08:42:36;;;;;;;3.40;1.80;;;;;;;15.86;33.65;99587.88;107117;1258;71452;-40
2023/05/01 08:45:07;;;;;;;4.10;2.20;;;;;;;16.02;32.58;99586.88;107211;1257;68161;-39
2023/05/01 08:47:38;;;;;;;3.30;1.80;;;;;;;16.14;31.60;99586.17;107099;1258;73691;-39
2023/05/01 08:50:12;;;;;;;2.90;1.40;;;;;;;16.21;31.43;99581.63;107214;1257;61252;-39
2023/05/01 08:52:41;;;;;;;4.30;1.60;;;;;;;16.26;31.71;99583.83;107243;1257;62374;-40
2023/05/01 08:55:13;;;;;;;2.30;1.50;;;;;;;16.32;30.85;99582.02;107218;1257;75239;-40
2023/05/01 08:57:44;;;;;;;2.80;1.70;;;;;;;16.36;30.85;99582.64;107269;1257;67616;-40
2023/05/01 09:00:18;;;;;;;3.40;1.60;;;;;;;16.40;31.29;99582.48;107030;1258;75021;-39
2023/05/01 09:02:47;;;;;;;2.30;1.10;;;;;;;16.49;30.83;99584.52;107066;1258;62991;-40
2023/05/01 09:05:16;;;;;;;2.40;1.30;;;;;;;16.52;30.23;99588.73;107037;1261;60757;-39
2023/05/01 09:07:44;;;;;;;5.50;1.20;;;;;;;16.54;29.97;99587.23;107114;1257;73858;-40
2023/05/01 09:10:12;;;;;;;1.50;1.20;;;;;;;16.60;30.23;99592.96;107116;1260;70311;-40
2023/05/01 09:12:40;;;;;;;1.80;1.30;;;;;;;16.65;29.66;99602.89;107245;1257;72776;-40
2023/05/01 09:15:08;;;;;;;1.40;1.30;;;;;;;16.66;29.29;99604.45;107063;1260;62191;-40
2023/05/01 09:17:35;;;;;;;2.90;1.20;;;;;;;16.65;29.69;99603.98;107059;1257;62403;-40
2023/05/01 09:20:06;;;;;;;1.70;1.20;;;;;;;16.68;29.79;99603.20;107012;1260;76139;-38
2023/05/01 09:22:34;;;;;;;1.50;1.10;;;;;;;16.73;30.07;99602.79;107212;1263;70249;-39
2023/05/01 09:25:02;;;;;;;2.00;1.10;;;;;;;16.84;29.61;99601.90;107065;1263;74974;-39
2023/05/01 09:27:34;;;;;;;2.10;1.10;;;;;;;16.95;28.57;99602.73;107062;1259;62034;-39
2023/05/01 09:30:02;;;;;;;2.70;1.20;;;;;;;17.03;29.07;99604.28;107259;1257;62611;-39
2023/05/01 09:32:30;;;;;;;4.20;1.30;;;;;;;17.13;29.19;99601.35;107077;1257;75121;-39
2023/05/01 09:35:13;;;;;;;2.90;1.60;;;;;;;17.25;29.23;99599.73;107077;1257;70246;-39
2023/05/01 09:37:40;;;;;;;3.30;1.10;;;;;;;17.40;29.55;99601.08;107134;1261;72199;-39
2023/05/01 09:40:09;;;;;;;4.00;1.20;;;;;;;17.55;29.14;99594.04;107065;1257;62686;-39
2023/05/01 09:42:38;;;;;;;4.40;1.30;;;;;;;17.70;28.12;99600.70;107124;1262;60319;-39
2023/05/01 09:45:13;;;;;;;2.40;1.10;;;;;;;17.81;27.81;99600.08;107126;1257;76181;-38
2023/05/01 09:47:41;;;;;;;2.50;1.30;;;;;;;17.88;26.67;99597.21;107010;1257;68448;-39
2023/05/01 09:50:09;;;;;;;1.80;1.10;;;;;;;17.89;26.88;99596.42;106994;1260;73563;-39
2023/05/01 09:52:37;;;;;;;3.60;1.10;;;;;;;17.91;26.00;99600.73;107241;1257;62693;-39
2023/05/01 09:55:17;;;;;;;3.20;1.20;;;;;;;17.97;25.87;99601.70;107047;1257;62657;-39
2023/05/01 09:57:45;;;;;;;;;;;;;;;18.09;26.15;99603.10;107085;1257;76162;-39
2023/05/01 10:00:14;;;;;;;1.90;1.10;;;;;;;18.16;26.41;99609.40;107031;1257;70259;-40
2023/05/01 10:02:43;;;;;;;1.30;0.80;;;;;;;18.25;26.68;99607.05;107084;1262;74986;-40
2023/05/01 10:05:11;;;;;;;1.10;1.00;;;;;;;18.44;26.35;99613.23;107015;1258;61973;-40
2023/05/01 10:07:38;;;;;;;5.20;1.20;;;;;;;18.60;26.36;99609.27;107048;1263;61444;-40
2023/05/01 10:10:18;;;;;;;1.00;0.90;;;;;;;18.81;25.99;99598.95;107045;1257;76009;-40
2023/05/01 10:12:46;;;;;;;5.50;1.20;;;;;;;18.99;25.41;99600.38;107113;1257;69653;-38
2023/05/01 10:15:14;;;;;;;2.00;1.00;;;;;;;19.05;24.88;99606.38;107193;1258;75071;-38
2023/05/01 10:17:51;;;;;;;3.40;1.10;;;;;;;19.14;24.92;99602.89;107192;1262;62522;-38
2023/05/01 10:20:19;;;;;;;2.50;1.00;;;;;;;19.31;24.84;99595.92;107261;1257;62670;-39
2023/05/01 10:22:47;;;;;;;3.00;1.10;;;;;;;19.50;24.88;99599.70;107182;1257;76016;-38
2023/05/01 10:25:15;;;;;;;1.90;1.10;;;;;;;19.68;24.91;99605.27;107266;1257;70280;-39
2023/05/01 10:27:43;;;;;;;1.20;1.00;;;;;;;19.81;23.80;99603.58;107222;1262;74917;-39
2023/05/01 10:30:11;;;;;;;1.90;0.90;;;;;;;19.86;24.00;99602.98;107183;1260;61495;-38
2023/05/01 10:32:40;;;;;;;3.80;1.10;;;;;;;19.95;24.42;99601.27;107232;1257;60416;-38
2023/05/01 10:35:12;;;;;;;2.70;0.90;;;;;;;20.05;24.25;99605.89;107202;1257;75962;-38
2023/05/01 10:37:47;;;;;;;3.40;1.00;;;;;;;20.20;23.54;99604.87;107249;1257;68998;-38
2023/05/01 10:40:37;;;;;;;2.40;0.90;;;;;;;20.41;23.88;99601.17;107159;1257;73599;-39
2023/05/01 10:43:31;;;;;;;0.80;0.70;;;;;;;20.73;23.53;99599.58;107183;1263;61487;-38
2023/05/01 10:46:10;;;;;;;1.50;0.80;;;;;;;20.85;22.56;99611.70;107138;1257;62629;-39
2023/05/01 10:48:38;;;;;;;;;;;;;;;20.81;22.31;99612.25;107119;1257;76188;-39
2023/05/01 10:51:12;;;;;;;1.70;0.80;;;;;;;20.75;22.50;99611.74;107157;1257;67349;-39
2023/05/01 10:53:40;;;;;;;1.10;0.80;;;;;;;20.79;23.01;99610.71;107151;1262;73333;-39
2023/05/01 10:56:26;;;;;;;1.00;0.80;;;;;;;21.09;23.33;99607.63;107195;1257;61878;-39
2023/05/01 10:58:55;;;;;;;1.60;0.70;;;;;;;21.44;22.28;99609.52;107228;1257;60397;-39
2023/05/01 11:01:43;;;;;;;1.40;1.00;;;;;;;21.58;21.94;99602.14;107270;1258;75144;-38
2023/05/01 11:04:26;;;;;;;1.80;1.00;;;;;;;21.78;22.12;99607.91;107295;1257;68773;-38
2023/05/01 11:07:14;;;;;;;3.20;1.20;;;;;;;21.91;21.88;99607.55;107218;1257;72137;-39
2023/05/01 11:09:46;;;;;;;4.10;0.90;;;;;;;21.99;22.24;99606.75;107195;1262;61537;-39
2023/05/01 11:12:14;;;;;;;1.00;0.70;;;;;;;22.16;22.27;99606.75;107214;1262;60339;-39
2023/05/01 11:15:04;;;;;;;1.40;0.80;;;;;;;22.34;21.19;99609.30;107327;1257;75074;-39
2023/05/01 11:17:40;;;;;;;1.70;0.90;;;;;;;22.21;21.15;99609.62;107275;1262;69474;-39
2023/05/01 11:20:09;;;;;;;2.00;0.80;;;;;;;22.18;21.84;99611.20;107060;1257;74020;-39
2023/05/01 11:22:38;;;;;;;1.50;0.80;;;;;;;22.33;21.25;99602.61;107079;1258;61867;-39
2023/05/01 11:25:17;;;;;;;2.10;0.90;;;;;;;22.45;21.23;99598.42;107121;1263;62891;-39
2023/05/01 11:27:49;;;;;;;1.00;0.50;;;;;;;22.58;21.11;99614.13;107227;1257;75856;-39
2023/05/01 11:30:16;;;;;;;2.00;1.00;;;;;;;22.81;20.55;99609.66;107202;1257;68701;-39
2023/05/01 11:32:45;;;;;;;1.10;0.80;;;;;;;22.91;19.50;99601.18;107231;1260;74226;-39
2023/05/01 11:35:15;;;;;;;1.50;0.90;;;;;;;22.79;19.87;99600.32;107261;1260;61462;-37
2023/05/01 11:37:43;;;;;;;2.10;1.10;;;;;;;22.75;20.41;99602.71;107206;1257;62783;-39
2023/05/01 11:40:22;;;;;;;2.30;0.80;;;;;;;22.84;20.51;99602.95;107132;1257;76106;-39
2023/05/01 11:42:50;;;;;;;1.70;0.80;;;;;;;22.89;21.08;99604.70;107155;1258;69761;-39
2023/05/01 11:45:20;;;;;;;1.90;1.10;;;;;;;23.08;20.97;99599.31;107193;1258;74987;-39